Alfred Station, New York
Current Conditions -  °F | °C
As of 10:56 AM on Friday 24 Oct 2014 (Local Time) from KELZ Reporting Station
Clear Clear  
Wind Chill: 51°   Ceiling: Unl
Heat Index: 51°   Visibility: 10mi
Dew Point: 38°   Wind: 6mph
Humidity: 61%   Direction: 350°N
Pressure: 30"   Gusts: NA
Location:  42.27°N, 77.76°W
Report Text: KELZ 241456Z AUTO 35005KT 10SM CLR 11/03 A3000 RMK AO2 SLP164 T01060033 58004
Loading
Personal Weather Stations






























Interactive Weather Map
Tropical Storm Tracking
New forecast layout! Learn more

10-Day Weather Forecast

Advertisements
Track Severe Weather on mobile